sensor_id;sensor_type;location;lat;lon;timestamp;pressure;altitude;pressure_sealevel;temperature;humidity
75604;BME280;64187;51.010;13.792;2023-07-02T00:01:19;99220.13;;;19.75;70.28
75604;BME280;64187;51.010;13.792;2023-07-02T00:06:18;99213.53;;;19.76;69.71
75604;BME280;64187;51.010;13.792;2023-07-02T00:11:17;99211.63;;;19.59;70.82
75604;BME280;64187;51.010;13.792;2023-07-02T00:16:16;99218.34;;;19.79;70.10
75604;BME280;64187;51.010;13.792;2023-07-02T00:21:15;99210.16;;;19.62;70.69
75604;BME280;64187;51.010;13.792;2023-07-02T00:26:14;99215.09;;;19.86;69.45
75604;BME280;64187;51.010;13.792;2023-07-02T00:31:13;99217.84;;;19.86;69.68
75604;BME280;64187;51.010;13.792;2023-07-02T00:36:13;99214.47;;;19.80;69.81
75604;BME280;64187;51.010;13.792;2023-07-02T00:41:16;99223.03;;;19.78;70.07
75604;BME280;64187;51.010;13.792;2023-07-02T00:46:17;99219.31;;;19.83;69.73
75604;BME280;64187;51.010;13.792;2023-07-02T00:51:22;99221.56;;;19.81;69.86
75604;BME280;64187;51.010;13.792;2023-07-02T00:56:23;99223.22;;;19.73;70.32
75604;BME280;64187;51.010;13.792;2023-07-02T01:01:23;99226.28;;;19.72;70.18
75604;BME280;64187;51.010;13.792;2023-07-02T01:06:25;99228.66;;;19.82;69.60
75604;BME280;64187;51.010;13.792;2023-07-02T01:11:40;99220.47;;;19.73;69.84
75604;BME280;64187;51.010;13.792;2023-07-02T01:16:42;99214.47;;;19.80;70.03
75604;BME280;64187;51.010;13.792;2023-07-02T01:21:42;99217.38;;;19.75;69.96
75604;BME280;64187;51.010;13.792;2023-07-02T01:26:42;99210.59;;;19.72;70.45
75604;BME280;64187;51.010;13.792;2023-07-02T01:31:40;99202.72;;;19.71;70.16
75604;BME280;64187;51.010;13.792;2023-07-02T01:36:40;99202.88;;;19.66;70.28
75604;BME280;64187;51.010;13.792;2023-07-02T01:41:54;99216.28;;;19.67;69.87
75604;BME280;64187;51.010;13.792;2023-07-02T01:46:53;99214.53;;;19.63;70.74
75604;BME280;64187;51.010;13.792;2023-07-02T01:51:55;99215.78;;;19.74;70.19
75604;BME280;64187;51.010;13.792;2023-07-02T01:56:55;99218.41;;;19.70;70.45
75604;BME280;64187;51.010;13.792;2023-07-02T02:01:55;99213.88;;;19.66;70.80
75604;BME280;64187;51.010;13.792;2023-07-02T02:06:54;99225.59;;;19.45;72.93
75604;BME280;64187;51.010;13.792;2023-07-02T02:11:53;99232.38;;;19.39;76.50
75604;BME280;64187;51.010;13.792;2023-07-02T02:16:52;99228.66;;;19.35;77.32
75604;BME280;64187;51.010;13.792;2023-07-02T02:21:51;99251.16;;;19.02;79.64
75604;BME280;64187;51.010;13.792;2023-07-02T02:26:50;99238.41;;;19.06;79.13
75604;BME280;64187;51.010;13.792;2023-07-02T02:31:49;99233.28;;;18.87;81.11
75604;BME280;64187;51.010;13.792;2023-07-02T02:36:48;99225.22;;;18.82;80.66
75604;BME280;64187;51.010;13.792;2023-07-02T02:41:47;99237.78;;;18.92;79.72
75604;BME280;64187;51.010;13.792;2023-07-02T02:46:51;99240.22;;;18.93;79.68
75604;BME280;64187;51.010;13.792;2023-07-02T02:51:50;99236.97;;;18.65;81.24
75604;BME280;64187;51.010;13.792;2023-07-02T02:56:48;99248.28;;;18.81;79.93
75604;BME280;64187;51.010;13.792;2023-07-02T03:01:47;99247.81;;;18.79;80.76
75604;BME280;64187;51.010;13.792;2023-07-02T03:06:47;99253.28;;;18.79;80.88
75604;BME280;64187;51.010;13.792;2023-07-02T03:11:46;99249.41;;;18.89;80.71
75604;BME280;64187;51.010;13.792;2023-07-02T03:16:46;99247.00;;;18.79;81.83
75604;BME280;64187;51.010;13.792;2023-07-02T03:21:45;99243.41;;;18.69;80.93
75604;BME280;64187;51.010;13.792;2023-07-02T03:26:44;99246.00;;;18.57;80.58
75604;BME280;64187;51.010;13.792;2023-07-02T03:31:43;99261.81;;;18.78;80.03
75604;BME280;64187;51.010;13.792;2023-07-02T03:36:42;99253.75;;;19.07;78.09
75604;BME280;64187;51.010;13.792;2023-07-02T03:41:43;99262.94;;;19.11;77.88
75604;BME280;64187;51.010;13.792;2023-07-02T03:46:42;99261.97;;;18.90;79.54
75604;BME280;64187;51.010;13.792;2023-07-02T03:51:42;99272.97;;;18.99;77.61
75604;BME280;64187;51.010;13.792;2023-07-02T03:56:41;99273.94;;;18.77;78.62
75604;BME280;64187;51.010;13.792;2023-07-02T04:01:39;99278.75;;;18.80;78.83
75604;BME280;64187;51.010;13.792;2023-07-02T04:06:38;99302.81;;;18.91;78.59
75604;BME280;64187;51.010;13.792;2023-07-02T04:11:37;99302.47;;;18.93;79.14
75604;BME280;64187;51.010;13.792;2023-07-02T04:16:36;99297.59;;;18.72;81.05
75604;BME280;64187;51.010;13.792;2023-07-02T04:21:35;99302.28;;;18.72;81.85
75604;BME280;64187;51.010;13.792;2023-07-02T04:26:34;99305.50;;;18.65;82.78
75604;BME280;64187;51.010;13.792;2023-07-02T04:31:55;99316.63;;;18.51;82.86
75604;BME280;64187;51.010;13.792;2023-07-02T04:36:54;99329.03;;;18.58;82.52
75604;BME280;64187;51.010;13.792;2023-07-02T04:41:53;99324.50;;;18.44;83.33
75604;BME280;64187;51.010;13.792;2023-07-02T04:46:52;99333.66;;;18.31;84.87
75604;BME280;64187;51.010;13.792;2023-07-02T04:51:51;99339.00;;;18.36;86.21
75604;BME280;64187;51.010;13.792;2023-07-02T04:56:52;99348.16;;;18.32;86.53
75604;BME280;64187;51.010;13.792;2023-07-02T05:01:50;99346.94;;;18.64;84.76
75604;BME280;64187;51.010;13.792;2023-07-02T05:06:49;99348.72;;;18.68;83.97
75604;BME280;64187;51.010;13.792;2023-07-02T05:11:48;99347.59;;;18.61;85.80
75604;BME280;64187;51.010;13.792;2023-07-02T05:16:47;99356.47;;;18.75;83.52
75604;BME280;64187;51.010;13.792;2023-07-02T05:21:46;99370.16;;;18.75;83.28
75604;BME280;64187;51.010;13.792;2023-07-02T05:26:45;99372.72;;;18.54;83.62
75604;BME280;64187;51.010;13.792;2023-07-02T05:31:44;99380.56;;;18.38;84.54
75604;BME280;64187;51.010;13.792;2023-07-02T05:36:44;99383.00;;;18.40;85.63
75604;BME280;64187;51.010;13.792;2023-07-02T05:41:43;99393.06;;;18.70;81.99
75604;BME280;64187;51.010;13.792;2023-07-02T05:46:42;99389.16;;;18.63;81.75
75604;BME280;64187;51.010;13.792;2023-07-02T05:51:41;99392.81;;;18.89;79.47
75604;BME280;64187;51.010;13.792;2023-07-02T05:56:40;99396.69;;;18.88;78.47
75604;BME280;64187;51.010;13.792;2023-07-02T06:01:39;99408.03;;;19.13;77.00
75604;BME280;64187;51.010;13.792;2023-07-02T06:06:37;99414.78;;;19.15;76.26
75604;BME280;64187;51.010;13.792;2023-07-02T06:11:36;99416.56;;;19.29;76.30
75604;BME280;64187;51.010;13.792;2023-07-02T06:16:36;99415.41;;;19.04;74.85
75604;BME280;64187;51.010;13.792;2023-07-02T06:21:36;99429.63;;;18.57;77.26
75604;BME280;64187;51.010;13.792;2023-07-02T06:26:35;99422.03;;;19.03;75.88
75604;BME280;64187;51.010;13.792;2023-07-02T06:31:34;99423.47;;;18.91;77.20
75604;BME280;64187;51.010;13.792;2023-07-02T06:36:33;99422.78;;;18.77;75.73
75604;BME280;64187;51.010;13.792;2023-07-02T06:41:32;99421.88;;;19.17;75.54
75604;BME280;64187;51.010;13.792;2023-07-02T06:46:30;99432.88;;;19.34;73.54
75604;BME280;64187;51.010;13.792;2023-07-02T06:51:30;99440.63;;;19.41;71.90
75604;BME280;64187;51.010;13.792;2023-07-02T06:56:28;99445.00;;;19.50;72.73
75604;BME280;64187;51.010;13.792;2023-07-02T07:01:27;99441.25;;;19.64;71.44
75604;BME280;64187;51.010;13.792;2023-07-02T07:06:26;99432.50;;;19.96;65.66
75604;BME280;64187;51.010;13.792;2023-07-02T07:11:29;99435.44;;;19.91;67.07
75604;BME280;64187;51.010;13.792;2023-07-02T07:16:28;99441.19;;;20.16;67.88
75604;BME280;64187;51.010;13.792;2023-07-02T07:21:27;99435.50;;;20.21;65.22
75604;BME280;64187;51.010;13.792;2023-07-02T07:26:26;99427.69;;;20.40;62.58
75604;BME280;64187;51.010;13.792;2023-07-02T07:31:25;99437.66;;;20.54;64.21
75604;BME280;64187;51.010;13.792;2023-07-02T07:36:24;99429.28;;;20.41;61.66
75604;BME280;64187;51.010;13.792;2023-07-02T07:41:22;99427.28;;;20.59;62.07
75604;BME280;64187;51.010;13.792;2023-07-02T07:46:21;99428.16;;;20.42;61.75
75604;BME280;64187;51.010;13.792;2023-07-02T07:51:23;99442.16;;;20.20;62.53
75604;BME280;64187;51.010;13.792;2023-07-02T07:56:22;99440.44;;;20.45;68.01
75604;BME280;64187;51.010;13.792;2023-07-02T08:01:21;99432.97;;;21.56;62.54
75604;BME280;64187;51.010;13.792;2023-07-02T08:06:20;99422.59;;;21.73;58.32
75604;BME280;64187;51.010;13.792;2023-07-02T08:11:18;99425.44;;;21.98;54.90
75604;BME280;64187;51.010;13.792;2023-07-02T08:16:17;99422.78;;;22.47;53.16
75604;BME280;64187;51.010;13.792;2023-07-02T08:21:16;99417.97;;;22.81;52.82
75604;BME280;64187;51.010;13.792;2023-07-02T08:26:15;99426.09;;;22.41;52.25
75604;BME280;64187;51.010;13.792;2023-07-02T08:31:14;99426.78;;;22.25;53.47
75604;BME280;64187;51.010;13.792;2023-07-02T08:36:13;99426.00;;;22.37;52.43
75604;BME280;64187;51.010;13.792;2023-07-02T08:41:12;99430.72;;;22.36;52.86
75604;BME280;64187;51.010;13.792;2023-07-02T08:46:11;99437.03;;;22.37;51.40
75604;BME280;64187;51.010;13.792;2023-07-02T08:51:10;99440.94;;;22.36;50.58
75604;BME280;64187;51.010;13.792;2023-07-02T08:56:09;99448.25;;;22.20;48.43
75604;BME280;64187;51.010;13.792;2023-07-02T09:01:09;99445.47;;;21.74;51.34
75604;BME280;64187;51.010;13.792;2023-07-02T09:06:10;99440.31;;;21.52;51.74
75604;BME280;64187;51.010;13.792;2023-07-02T09:11:12;99437.53;;;22.18;50.37
75604;BME280;64187;51.010;13.792;2023-07-02T09:16:41;99445.81;;;22.18;50.35
75604;BME280;64187;51.010;13.792;2023-07-02T09:21:46;99450.38;;;22.72;47.57
75604;BME280;64187;51.010;13.792;2023-07-02T09:26:51;99448.19;;;22.90;45.92
75604;BME280;64187;51.010;13.792;2023-07-02T09:31:50;99447.16;;;22.82;44.08
75604;BME280;64187;51.010;13.792;2023-07-02T09:37:08;99457.16;;;22.74;46.20
75604;BME280;64187;51.010;13.792;2023-07-02T09:42:07;99456.94;;;23.04;44.14
75604;BME280;64187;51.010;13.792;2023-07-02T09:47:08;99455.31;;;22.91;44.27
75604;BME280;64187;51.010;13.792;2023-07-02T09:52:08;99451.09;;;23.06;43.35
75604;BME280;64187;51.010;13.792;2023-07-02T09:57:07;99456.69;;;22.60;45.77
75604;BME280;64187;51.010;13.792;2023-07-02T10:02:08;99461.16;;;23.26;43.99
75604;BME280;64187;51.010;13.792;2023-07-02T10:07:10;99453.13;;;22.84;44.10
75604;BME280;64187;51.010;13.792;2023-07-02T10:12:17;99453.38;;;23.04;44.65
75604;BME280;64187;51.010;13.792;2023-07-02T10:17:53;99452.47;;;22.99;43.58
75604;BME280;64187;51.010;13.792;2023-07-02T10:22:53;99446.53;;;23.38;42.60
75604;BME280;64187;51.010;13.792;2023-07-02T10:27:53;99455.88;;;22.96;43.37
75604;BME280;64187;51.010;13.792;2023-07-02T10:32:52;99460.00;;;22.90;44.91
75604;BME280;64187;51.010;13.792;2023-07-02T10:37:51;99457.38;;;23.18;44.43
75604;BME280;64187;51.010;13.792;2023-07-02T10:42:52;99459.25;;;23.02;44.59
75604;BME280;64187;51.010;13.792;2023-07-02T10:47:51;99443.25;;;22.83;43.63
75604;BME280;64187;51.010;13.792;2023-07-02T10:52:50;99447.97;;;23.07;43.77
75604;BME280;64187;51.010;13.792;2023-07-02T10:58:01;99441.41;;;22.99;42.77
75604;BME280;64187;51.010;13.792;2023-07-02T11:03:03;99440.56;;;23.24;43.84
75604;BME280;64187;51.010;13.792;2023-07-02T11:08:08;99445.56;;;23.06;42.61
75604;BME280;64187;51.010;13.792;2023-07-02T11:13:14;99455.41;;;23.19;42.21
75604;BME280;64187;51.010;13.792;2023-07-02T11:18:15;99440.03;;;23.18;42.58
75604;BME280;64187;51.010;13.792;2023-07-02T11:23:22;99434.28;;;24.07;40.52
75604;BME280;64187;51.010;13.792;2023-07-02T11:28:21;99439.28;;;24.49;40.18
75604;BME280;64187;51.010;13.792;2023-07-02T11:33:42;99432.41;;;24.43;39.75
75604;BME280;64187;51.010;13.792;2023-07-02T11:38:40;99447.03;;;24.44;39.54
75604;BME280;64187;51.010;13.792;2023-07-02T11:43:39;99446.13;;;24.08;39.63
75604;BME280;64187;51.010;13.792;2023-07-02T11:48:38;99451.00;;;24.59;40.13
75604;BME280;64187;51.010;13.792;2023-07-02T11:53:37;99450.03;;;24.07;40.51
75604;BME280;64187;51.010;13.792;2023-07-02T11:58:36;99453.69;;;24.55;40.90
75604;BME280;64187;51.010;13.792;2023-07-02T12:03:34;99452.22;;;24.93;39.42
75604;BME280;64187;51.010;13.792;2023-07-02T12:08:33;99464.69;;;24.07;40.99
75604;BME280;64187;51.010;13.792;2023-07-02T12:13:32;99472.75;;;23.32;42.25
75604;BME280;64187;51.010;13.792;2023-07-02T12:18:31;99475.56;;;23.07;43.04
75604;BME280;64187;51.010;13.792;2023-07-02T12:23:31;99463.94;;;23.54;42.77
75604;BME280;64187;51.010;13.792;2023-07-02T12:28:30;99459.38;;;24.46;39.22
75604;BME280;64187;51.010;13.792;2023-07-02T12:33:29;99465.25;;;24.45;39.94
75604;BME280;64187;51.010;13.792;2023-07-02T12:38:27;99466.97;;;24.65;39.83
75604;BME280;64187;51.010;13.792;2023-07-02T12:43:26;99465.16;;;23.81;40.62
75604;BME280;64187;51.010;13.792;2023-07-02T12:48:25;99461.53;;;23.93;41.51
75604;BME280;64187;51.010;13.792;2023-07-02T12:53:25;99473.47;;;24.25;40.13
75604;BME280;64187;51.010;13.792;2023-07-02T12:58:24;99471.81;;;24.53;40.54
75604;BME280;64187;51.010;13.792;2023-07-02T13:03:23;99482.28;;;24.31;39.25
75604;BME280;64187;51.010;13.792;2023-07-02T13:08:23;99481.75;;;24.25;40.43
75604;BME280;64187;51.010;13.792;2023-07-02T13:13:22;99482.31;;;24.47;38.96
75604;BME280;64187;51.010;13.792;2023-07-02T13:18:23;99482.00;;;24.20;37.90
75604;BME280;64187;51.010;13.792;2023-07-02T13:23:25;99491.22;;;24.40;39.29
75604;BME280;64187;51.010;13.792;2023-07-02T13:28:24;99494.34;;;23.95;39.34
75604;BME280;64187;51.010;13.792;2023-07-02T13:33:29;99492.41;;;23.42;42.44
75604;BME280;64187;51.010;13.792;2023-07-02T13:38:29;99490.69;;;23.91;43.45
75604;BME280;64187;51.010;13.792;2023-07-02T13:43:28;99504.81;;;23.61;43.83
75604;BME280;64187;51.010;13.792;2023-07-02T13:48:27;99510.41;;;23.77;43.81
75604;BME280;64187;51.010;13.792;2023-07-02T13:53:29;99504.13;;;24.20;42.80
75604;BME280;64187;51.010;13.792;2023-07-02T13:59:00;99489.31;;;23.72;43.57
75604;BME280;64187;51.010;13.792;2023-07-02T14:04:00;99512.50;;;24.08;40.68
75604;BME280;64187;51.010;13.792;2023-07-02T14:08:59;99510.28;;;24.14;41.56
75604;BME280;64187;51.010;13.792;2023-07-02T14:13:58;99513.50;;;24.16;40.35
75604;BME280;64187;51.010;13.792;2023-07-02T14:18:57;99504.34;;;23.99;40.78
75604;BME280;64187;51.010;13.792;2023-07-02T14:23:57;99514.88;;;24.10;40.36
75604;BME280;64187;51.010;13.792;2023-07-02T14:28:57;99526.50;;;23.87;41.42
75604;BME280;64187;51.010;13.792;2023-07-02T14:33:56;99519.03;;;23.88;41.45
75604;BME280;64187;51.010;13.792;2023-07-02T14:38:55;99535.75;;;24.07;40.47
75604;BME280;64187;51.010;13.792;2023-07-02T14:43:55;99522.13;;;24.42;38.54
75604;BME280;64187;51.010;13.792;2023-07-02T14:48:54;99523.66;;;24.71;38.24
75604;BME280;64187;51.010;13.792;2023-07-02T14:53:52;99531.78;;;24.64;39.44
75604;BME280;64187;51.010;13.792;2023-07-02T14:58:51;99522.88;;;24.27;39.44
75604;BME280;64187;51.010;13.792;2023-07-02T15:03:50;99528.22;;;23.92;39.79
75604;BME280;64187;51.010;13.792;2023-07-02T15:08:56;99531.97;;;23.59;40.24
75604;BME280;64187;51.010;13.792;2023-07-02T15:13:55;99524.66;;;23.38;40.81
75604;BME280;64187;51.010;13.792;2023-07-02T15:18:54;99540.84;;;23.52;41.33
75604;BME280;64187;51.010;13.792;2023-07-02T15:23:53;99542.53;;;23.81;39.71
75604;BME280;64187;51.010;13.792;2023-07-02T15:28:52;99540.22;;;24.12;38.96
75604;BME280;64187;51.010;13.792;2023-07-02T15:33:54;99547.34;;;23.84;39.69
75604;BME280;64187;51.010;13.792;2023-07-02T15:38:56;99543.72;;;24.08;39.74
75604;BME280;64187;51.010;13.792;2023-07-02T15:43:56;99555.16;;;24.67;38.97
75604;BME280;64187;51.010;13.792;2023-07-02T15:48:58;99557.78;;;24.32;38.00
75604;BME280;64187;51.010;13.792;2023-07-02T15:54:03;99558.44;;;23.60;39.31
75604;BME280;64187;51.010;13.792;2023-07-02T15:59:04;99563.66;;;23.49;39.88
75604;BME280;64187;51.010;13.792;2023-07-02T16:04:06;99564.41;;;24.15;38.94
75604;BME280;64187;51.010;13.792;2023-07-02T16:09:07;99561.44;;;23.55;40.61
75604;BME280;64187;51.010;13.792;2023-07-02T16:14:12;99558.28;;;23.93;40.63
75604;BME280;64187;51.010;13.792;2023-07-02T16:19:14;99559.75;;;24.91;38.93
75604;BME280;64187;51.010;13.792;2023-07-02T16:24:31;99560.38;;;23.84;40.30
75604;BME280;64187;51.010;13.792;2023-07-02T16:29:30;99566.72;;;23.72;39.68
75604;BME280;64187;51.010;13.792;2023-07-02T16:34:30;99569.38;;;23.81;40.13
75604;BME280;64187;51.010;13.792;2023-07-02T16:39:29;99572.53;;;24.07;40.30
75604;BME280;64187;51.010;13.792;2023-07-02T16:44:28;99574.38;;;24.76;38.33
75604;BME280;64187;51.010;13.792;2023-07-02T16:49:28;99577.44;;;24.42;38.56
75604;BME280;64187;51.010;13.792;2023-07-02T16:54:27;99583.78;;;24.87;38.70
75604;BME280;64187;51.010;13.792;2023-07-02T16:59:29;99586.84;;;24.25;39.26
75604;BME280;64187;51.010;13.792;2023-07-02T17:04:28;99588.06;;;24.00;39.87
75604;BME280;64187;51.010;13.792;2023-07-02T17:09:28;99595.09;;;24.38;39.38
75604;BME280;64187;51.010;13.792;2023-07-02T17:14:41;99593.94;;;27.25;34.13
75604;BME280;64187;51.010;13.792;2023-07-02T17:19:42;99591.81;;;25.75;37.01
75604;BME280;64187;51.010;13.792;2023-07-02T17:24:43;99600.88;;;24.33;39.31
75604;BME280;64187;51.010;13.792;2023-07-02T17:29:49;99597.34;;;23.79;41.04
75604;BME280;64187;51.010;13.792;2023-07-02T17:34:48;99605.44;;;23.11;41.85
75604;BME280;64187;51.010;13.792;2023-07-02T17:39:48;99601.50;;;22.99;41.87
75604;BME280;64187;51.010;13.792;2023-07-02T17:44:47;99601.69;;;22.82;41.94
75604;BME280;64187;51.010;13.792;2023-07-02T17:49:59;99591.81;;;22.93;42.44
75604;BME280;64187;51.010;13.792;2023-07-02T17:54:58;99588.47;;;22.88;42.40
75604;BME280;64187;51.010;13.792;2023-07-02T17:59:57;99586.38;;;22.72;43.39
75604;BME280;64187;51.010;13.792;2023-07-02T18:04:58;99589.22;;;22.51;43.77
75604;BME280;64187;51.010;13.792;2023-07-02T18:09:57;99602.31;;;22.54;43.23
75604;BME280;64187;51.010;13.792;2023-07-02T18:14:56;99603.75;;;22.40;42.61
75604;BME280;64187;51.010;13.792;2023-07-02T18:19:58;99612.56;;;22.33;43.07
75604;BME280;64187;51.010;13.792;2023-07-02T18:24:59;99604.44;;;22.36;42.95
75604;BME280;64187;51.010;13.792;2023-07-02T18:29:57;99609.22;;;22.27;43.38
75604;BME280;64187;51.010;13.792;2023-07-02T18:34:57;99618.88;;;22.12;43.99
75604;BME280;64187;51.010;13.792;2023-07-02T18:39:56;99609.00;;;22.32;43.50
75604;BME280;64187;51.010;13.792;2023-07-02T18:44:55;99616.16;;;22.33;43.94
75604;BME280;64187;51.010;13.792;2023-07-02T18:49:54;99618.44;;;22.31;43.44
75604;BME280;64187;51.010;13.792;2023-07-02T18:54:59;99622.56;;;21.96;44.63
75604;BME280;64187;51.010;13.792;2023-07-02T18:59:58;99620.75;;;21.79;45.03
75604;BME280;64187;51.010;13.792;2023-07-02T19:04:58;99627.72;;;21.76;45.61
75604;BME280;64187;51.010;13.792;2023-07-02T19:09:58;99632.59;;;21.79;46.44
75604;BME280;64187;51.010;13.792;2023-07-02T19:14:58;99624.47;;;21.83;46.06
75604;BME280;64187;51.010;13.792;2023-07-02T19:19:59;99625.44;;;21.57;47.49
75604;BME280;64187;51.010;13.792;2023-07-02T19:24:58;99625.75;;;21.56;47.38
75604;BME280;64187;51.010;13.792;2023-07-02T19:29:57;99631.13;;;21.52;47.69
75604;BME280;64187;51.010;13.792;2023-07-02T19:34:56;99645.09;;;21.38;49.05
75604;BME280;64187;51.010;13.792;2023-07-02T19:39:56;99645.34;;;21.24;50.02
75604;BME280;64187;51.010;13.792;2023-07-02T19:44:56;99649.88;;;21.20;50.24
75604;BME280;64187;51.010;13.792;2023-07-02T19:49:57;99653.31;;;21.08;50.30
75604;BME280;64187;51.010;13.792;2023-07-02T19:55:02;99651.09;;;21.02;50.86
75604;BME280;64187;51.010;13.792;2023-07-02T20:00:01;99661.59;;;21.00;50.60
75604;BME280;64187;51.010;13.792;2023-07-02T20:05:06;99660.59;;;21.13;50.24
75604;BME280;64187;51.010;13.792;2023-07-02T20:10:06;99666.56;;;21.15;50.20
75604;BME280;64187;51.010;13.792;2023-07-02T20:15:06;99663.91;;;20.80;51.26
75604;BME280;64187;51.010;13.792;2023-07-02T20:20:07;99669.25;;;20.77;51.33
75604;BME280;64187;51.010;13.792;2023-07-02T20:25:07;99666.50;;;20.51;52.98
75604;BME280;64187;51.010;13.792;2023-07-02T20:30:26;99666.19;;;20.26;53.54
75604;BME280;64187;51.010;13.792;2023-07-02T20:35:25;99670.56;;;20.18;53.94
75604;BME280;64187;51.010;13.792;2023-07-02T20:40:25;99683.63;;;20.04;54.46
75604;BME280;64187;51.010;13.792;2023-07-02T20:45:24;99682.31;;;19.84;54.65
75604;BME280;64187;51.010;13.792;2023-07-02T20:50:29;99680.25;;;20.16;54.44
75604;BME280;64187;51.010;13.792;2023-07-02T20:55:28;99689.94;;;20.05;54.62
75604;BME280;64187;51.010;13.792;2023-07-02T21:00:27;99697.00;;;19.79;55.95
75604;BME280;64187;51.010;13.792;2023-07-02T21:05:26;99708.25;;;20.35;53.49
75604;BME280;64187;51.010;13.792;2023-07-02T21:10:25;99712.09;;;20.08;53.18
75604;BME280;64187;51.010;13.792;2023-07-02T21:15:23;99716.47;;;20.18;53.09
75604;BME280;64187;51.010;13.792;2023-07-02T21:20:22;99720.34;;;20.08;54.05
75604;BME280;64187;51.010;13.792;2023-07-02T21:25:21;99734.03;;;19.91;55.34
75604;BME280;64187;51.010;13.792;2023-07-02T21:30:20;99743.88;;;19.83;55.97
75604;BME280;64187;51.010;13.792;2023-07-02T21:35:20;99752.28;;;19.87;56.07
75604;BME280;64187;51.010;13.792;2023-07-02T21:40:19;99748.47;;;20.14;67.31
75604;BME280;64187;51.010;13.792;2023-07-02T21:45:18;99750.75;;;21.16;59.94
75604;BME280;64187;51.010;13.792;2023-07-02T21:50:17;99759.47;;;20.14;54.54
75604;BME280;64187;51.010;13.792;2023-07-02T21:55:16;99762.25;;;19.74;56.82
75604;BME280;64187;51.010;13.792;2023-07-02T22:00:15;99761.88;;;19.67;56.68
75604;BME280;64187;51.010;13.792;2023-07-02T22:05:14;99761.63;;;19.46;57.38
75604;BME280;64187;51.010;13.792;2023-07-02T22:10:18;99771.75;;;19.36;57.76
75604;BME280;64187;51.010;13.792;2023-07-02T22:15:17;99774.69;;;19.18;57.84
75604;BME280;64187;51.010;13.792;2023-07-02T22:20:16;99767.16;;;19.23;58.51
75604;BME280;64187;51.010;13.792;2023-07-02T22:25:17;99771.38;;;19.29;58.52
75604;BME280;64187;51.010;13.792;2023-07-02T22:30:16;99771.81;;;19.23;58.06
75604;BME280;64187;51.010;13.792;2023-07-02T22:35:15;99772.94;;;19.22;57.87
75604;BME280;64187;51.010;13.792;2023-07-02T22:40:16;99774.38;;;18.97;57.88
75604;BME280;64187;51.010;13.792;2023-07-02T22:45:15;99772.28;;;19.16;58.02
75604;BME280;64187;51.010;13.792;2023-07-02T22:50:15;99770.97;;;19.13;58.05
75604;BME280;64187;51.010;13.792;2023-07-02T22:55:14;99765.31;;;19.41;55.61
75604;BME280;64187;51.010;13.792;2023-07-02T23:00:15;99759.06;;;19.18;56.75
75604;BME280;64187;51.010;13.792;2023-07-02T23:05:19;99758.22;;;19.18;57.52
75604;BME280;64187;51.010;13.792;2023-07-02T23:10:19;99760.59;;;18.88;58.40
75604;BME280;64187;51.010;13.792;2023-07-02T23:15:20;99746.47;;;18.58;59.42
75604;BME280;64187;51.010;13.792;2023-07-02T23:20:20;99747.53;;;18.48;60.39
75604;BME280;64187;51.010;13.792;2023-07-02T23:25:23;99739.63;;;18.47;60.81
75604;BME280;64187;51.010;13.792;2023-07-02T23:30:23;99745.34;;;18.23;60.38
75604;BME280;64187;51.010;13.792;2023-07-02T23:35:26;99743.22;;;18.20;60.11
75604;BME280;64187;51.010;13.792;2023-07-02T23:40:50;99741.09;;;18.17;60.48
75604;BME280;64187;51.010;13.792;2023-07-02T23:45:49;99736.44;;;18.03;61.19
75604;BME280;64187;51.010;13.792;2023-07-02T23:50:48;99740.41;;;18.11;60.85
75604;BME280;64187;51.010;13.792;2023-07-02T23:55:47;99733.00;;;17.98;61.65
